sensor_id;sensor_type;location;lat;lon;timestamp;P1;durP1;ratioP1;P2;durP2;ratioP2
7517;SDS011;3800;48.922;9.444;2022-09-01T00:00:12;10.30;;;9.30;;
7517;SDS011;3800;48.922;9.444;2022-09-01T00:02:41;9.63;;;8.73;;
7517;SDS011;3800;48.922;9.444;2022-09-01T00:05:09;10.07;;;9.13;;
7517;SDS011;3800;48.922;9.444;2022-09-01T00:07:37;9.63;;;8.67;;
7517;SDS011;3800;48.922;9.444;2022-09-01T00:10:06;9.37;;;8.47;;
7517;SDS011;3800;48.922;9.444;2022-09-01T00:12:35;8.97;;;8.07;;
7517;SDS011;3800;48.922;9.444;2022-09-01T00:15:04;8.97;;;8.07;;
7517;SDS011;3800;48.922;9.444;2022-09-01T00:17:32;9.37;;;8.47;;
7517;SDS011;3800;48.922;9.444;2022-09-01T00:20:00;8.90;;;8.10;;
7517;SDS011;3800;48.922;9.444;2022-09-01T00:22:28;9.53;;;8.37;;
7517;SDS011;3800;48.922;9.444;2022-09-01T00:24:57;9.10;;;8.10;;
7517;SDS011;3800;48.922;9.444;2022-09-01T00:27:25;8.57;;;7.77;;
7517;SDS011;3800;48.922;9.444;2022-09-01T00:29:53;8.17;;;7.47;;
7517;SDS011;3800;48.922;9.444;2022-09-01T00:32:21;8.73;;;7.87;;
7517;SDS011;3800;48.922;9.444;2022-09-01T00:34:50;8.80;;;7.87;;
7517;SDS011;3800;48.922;9.444;2022-09-01T00:37:18;8.67;;;7.87;;
7517;SDS011;3800;48.922;9.444;2022-09-01T00:39:46;9.40;;;8.50;;
7517;SDS011;3800;48.922;9.444;2022-09-01T00:42:15;9.90;;;8.10;;
7517;SDS011;3800;48.922;9.444;2022-09-01T00:44:43;9.27;;;8.37;;
7517;SDS011;3800;48.922;9.444;2022-09-01T00:47:12;9.07;;;8.20;;
7517;SDS011;3800;48.922;9.444;2022-09-01T00:49:40;9.33;;;8.43;;
7517;SDS011;3800;48.922;9.444;2022-09-01T00:52:14;10.33;;;9.23;;
7517;SDS011;3800;48.922;9.444;2022-09-01T00:54:42;11.97;;;9.70;;
7517;SDS011;3800;48.922;9.444;2022-09-01T00:57:09;10.20;;;9.10;;
7517;SDS011;3800;48.922;9.444;2022-09-01T00:59:38;10.67;;;9.57;;
7517;SDS011;3800;48.922;9.444;2022-09-01T01:02:06;10.40;;;9.40;;
7517;SDS011;3800;48.922;9.444;2022-09-01T01:04:34;11.13;;;10.03;;
7517;SDS011;3800;48.922;9.444;2022-09-01T01:07:02;10.33;;;9.33;;
7517;SDS011;3800;48.922;9.444;2022-09-01T01:09:32;9.57;;;8.67;;
7517;SDS011;3800;48.922;9.444;2022-09-01T01:12:00;10.70;;;9.10;;
7517;SDS011;3800;48.922;9.444;2022-09-01T01:14:28;9.17;;;8.27;;
7517;SDS011;3800;48.922;9.444;2022-09-01T01:16:57;10.37;;;8.20;;
7517;SDS011;3800;48.922;9.444;2022-09-01T01:22:19;9.30;;;8.30;;
7517;SDS011;3800;48.922;9.444;2022-09-01T01:24:53;8.93;;;8.13;;
7517;SDS011;3800;48.922;9.444;2022-09-01T01:27:22;9.27;;;8.37;;
7517;SDS011;3800;48.922;9.444;2022-09-01T01:29:50;9.50;;;8.00;;
7517;SDS011;3800;48.922;9.444;2022-09-01T01:32:18;10.40;;;9.40;;
7517;SDS011;3800;48.922;9.444;2022-09-01T01:34:46;10.27;;;9.23;;
7517;SDS011;3800;48.922;9.444;2022-09-01T01:37:15;9.93;;;9.03;;
7517;SDS011;3800;48.922;9.444;2022-09-01T01:39:43;12.00;;;8.70;;
7517;SDS011;3800;48.922;9.444;2022-09-01T01:42:11;9.13;;;8.33;;
7517;SDS011;3800;48.922;9.444;2022-09-01T01:44:39;9.90;;;8.70;;
7517;SDS011;3800;48.922;9.444;2022-09-01T01:47:10;9.20;;;8.40;;
7517;SDS011;3800;48.922;9.444;2022-09-01T01:49:36;8.60;;;7.80;;
7517;SDS011;3800;48.922;9.444;2022-09-01T01:52:04;9.53;;;8.53;;
7517;SDS011;3800;48.922;9.444;2022-09-01T01:54:32;9.33;;;8.43;;
7517;SDS011;3800;48.922;9.444;2022-09-01T01:57:01;10.50;;;9.40;;
7517;SDS011;3800;48.922;9.444;2022-09-01T01:59:31;10.53;;;9.43;;
7517;SDS011;3800;48.922;9.444;2022-09-01T02:01:59;10.00;;;9.10;;
7517;SDS011;3800;48.922;9.444;2022-09-01T02:04:27;9.20;;;8.23;;
7517;SDS011;3800;48.922;9.444;2022-09-01T02:06:55;10.03;;;8.77;;
7517;SDS011;3800;48.922;9.444;2022-09-01T02:09:24;9.70;;;8.70;;
7517;SDS011;3800;48.922;9.444;2022-09-01T02:11:52;10.30;;;9.23;;
7517;SDS011;3800;48.922;9.444;2022-09-01T02:14:21;9.37;;;8.47;;
7517;SDS011;3800;48.922;9.444;2022-09-01T02:16:49;10.20;;;8.47;;
7517;SDS011;3800;48.922;9.444;2022-09-01T02:19:17;10.63;;;9.63;;
7517;SDS011;3800;48.922;9.444;2022-09-01T02:21:46;11.17;;;10.07;;
7517;SDS011;3800;48.922;9.444;2022-09-01T02:24:14;11.77;;;10.70;;
7517;SDS011;3800;48.922;9.444;2022-09-01T02:26:43;12.83;;;11.53;;
7517;SDS011;3800;48.922;9.444;2022-09-01T02:29:14;16.30;;;14.60;;
7517;SDS011;3800;48.922;9.444;2022-09-01T02:31:46;16.30;;;14.70;;
7517;SDS011;3800;48.922;9.444;2022-09-01T02:34:14;16.43;;;14.73;;
7517;SDS011;3800;48.922;9.444;2022-09-01T02:36:44;17.93;;;16.07;;
7517;SDS011;3800;48.922;9.444;2022-09-01T02:39:11;18.43;;;16.73;;
7517;SDS011;3800;48.922;9.444;2022-09-01T02:41:41;18.10;;;16.23;;
7517;SDS011;3800;48.922;9.444;2022-09-01T02:44:09;19.37;;;17.37;;
7517;SDS011;3800;48.922;9.444;2022-09-01T02:46:39;18.63;;;16.70;;
7517;SDS011;3800;48.922;9.444;2022-09-01T02:49:10;18.53;;;16.63;;
7517;SDS011;3800;48.922;9.444;2022-09-01T02:51:41;19.40;;;17.40;;
7517;SDS011;3800;48.922;9.444;2022-09-01T02:54:09;18.53;;;16.67;;
7517;SDS011;3800;48.922;9.444;2022-09-01T02:56:37;18.30;;;16.40;;
7517;SDS011;3800;48.922;9.444;2022-09-01T02:59:05;18.53;;;16.63;;
7517;SDS011;3800;48.922;9.444;2022-09-01T03:01:33;15.97;;;14.27;;
7517;SDS011;3800;48.922;9.444;2022-09-01T03:04:02;15.57;;;14.07;;
7517;SDS011;3800;48.922;9.444;2022-09-01T03:06:32;16.37;;;14.77;;
7517;SDS011;3800;48.922;9.444;2022-09-01T03:09:02;17.13;;;15.43;;
7517;SDS011;3800;48.922;9.444;2022-09-01T03:11:30;16.43;;;14.83;;
7517;SDS011;3800;48.922;9.444;2022-09-01T03:13:57;15.20;;;13.80;;
7517;SDS011;3800;48.922;9.444;2022-09-01T03:16:26;14.83;;;13.40;;
7517;SDS011;3800;48.922;9.444;2022-09-01T03:18:54;15.90;;;14.27;;
7517;SDS011;3800;48.922;9.444;2022-09-01T03:21:22;15.43;;;13.93;;
7517;SDS011;3800;48.922;9.444;2022-09-01T03:23:51;18.80;;;16.90;;
7517;SDS011;3800;48.922;9.444;2022-09-01T03:26:19;19.40;;;17.43;;
7517;SDS011;3800;48.922;9.444;2022-09-01T03:28:49;18.13;;;16.23;;
7517;SDS011;3800;48.922;9.444;2022-09-01T03:31:17;18.47;;;16.60;;
7517;SDS011;3800;48.922;9.444;2022-09-01T03:33:45;19.27;;;17.37;;
7517;SDS011;3800;48.922;9.444;2022-09-01T03:36:13;19.47;;;16.93;;
7517;SDS011;3800;48.922;9.444;2022-09-01T03:38:42;18.73;;;16.80;;
7517;SDS011;3800;48.922;9.444;2022-09-01T03:41:12;19.53;;;17.63;;
7517;SDS011;3800;48.922;9.444;2022-09-01T03:43:40;19.00;;;17.20;;
7517;SDS011;3800;48.922;9.444;2022-09-01T03:46:08;18.03;;;16.30;;
7517;SDS011;3800;48.922;9.444;2022-09-01T03:48:37;17.67;;;15.97;;
7517;SDS011;3800;48.922;9.444;2022-09-01T03:51:05;19.33;;;17.33;;
7517;SDS011;3800;48.922;9.444;2022-09-01T03:53:34;17.20;;;15.50;;
7517;SDS011;3800;48.922;9.444;2022-09-01T03:56:01;18.17;;;16.37;;
7517;SDS011;3800;48.922;9.444;2022-09-01T03:58:30;17.40;;;15.60;;
7517;SDS011;3800;48.922;9.444;2022-09-01T04:00:58;16.90;;;15.13;;
7517;SDS011;3800;48.922;9.444;2022-09-01T04:03:27;18.23;;;16.43;;
7517;SDS011;3800;48.922;9.444;2022-09-01T04:05:55;17.93;;;16.17;;
7517;SDS011;3800;48.922;9.444;2022-09-01T04:08:23;16.80;;;15.10;;
7517;SDS011;3800;48.922;9.444;2022-09-01T04:10:52;15.83;;;14.23;;
7517;SDS011;3800;48.922;9.444;2022-09-01T04:13:21;15.37;;;13.87;;
7517;SDS011;3800;48.922;9.444;2022-09-01T04:15:50;15.80;;;14.20;;
7517;SDS011;3800;48.922;9.444;2022-09-01T04:18:18;17.90;;;16.10;;
7517;SDS011;3800;48.922;9.444;2022-09-01T04:20:48;16.93;;;15.23;;
7517;SDS011;3800;48.922;9.444;2022-09-01T04:23:20;18.47;;;16.57;;
7517;SDS011;3800;48.922;9.444;2022-09-01T04:26:04;19.83;;;17.73;;
7517;SDS011;3800;48.922;9.444;2022-09-01T04:28:42;17.67;;;15.80;;
7517;SDS011;3800;48.922;9.444;2022-09-01T04:31:11;17.20;;;15.37;;
7517;SDS011;3800;48.922;9.444;2022-09-01T04:33:39;19.10;;;17.20;;
7517;SDS011;3800;48.922;9.444;2022-09-01T04:36:23;17.77;;;15.90;;
7517;SDS011;3800;48.922;9.444;2022-09-01T04:38:54;17.80;;;16.07;;
7517;SDS011;3800;48.922;9.444;2022-09-01T04:41:21;24.20;;;17.57;;
7517;SDS011;3800;48.922;9.444;2022-09-01T04:43:49;19.27;;;17.37;;
7517;SDS011;3800;48.922;9.444;2022-09-01T04:46:17;21.77;;;19.47;;
7517;SDS011;3800;48.922;9.444;2022-09-01T04:48:46;21.00;;;18.23;;
7517;SDS011;3800;48.922;9.444;2022-09-01T04:51:14;25.90;;;22.73;;
7517;SDS011;3800;48.922;9.444;2022-09-01T04:53:42;26.47;;;22.57;;
7517;SDS011;3800;48.922;9.444;2022-09-01T04:56:10;26.57;;;22.93;;
7517;SDS011;3800;48.922;9.444;2022-09-01T04:58:39;27.57;;;23.87;;
7517;SDS011;3800;48.922;9.444;2022-09-01T05:01:12;26.83;;;23.37;;
7517;SDS011;3800;48.922;9.444;2022-09-01T05:03:41;30.60;;;26.07;;
7517;SDS011;3800;48.922;9.444;2022-09-01T05:06:12;32.10;;;26.23;;
7517;SDS011;3800;48.922;9.444;2022-09-01T05:08:42;33.10;;;26.27;;
7517;SDS011;3800;48.922;9.444;2022-09-01T05:11:11;35.10;;;25.83;;
7517;SDS011;3800;48.922;9.444;2022-09-01T05:13:38;27.00;;;23.50;;
7517;SDS011;3800;48.922;9.444;2022-09-01T05:16:08;26.13;;;22.30;;
7517;SDS011;3800;48.922;9.444;2022-09-01T05:18:35;23.30;;;20.73;;
7517;SDS011;3800;48.922;9.444;2022-09-01T05:21:05;22.33;;;19.80;;
7517;SDS011;3800;48.922;9.444;2022-09-01T05:23:37;23.80;;;20.17;;
7517;SDS011;3800;48.922;9.444;2022-09-01T05:26:10;22.53;;;20.17;;
7517;SDS011;3800;48.922;9.444;2022-09-01T05:28:38;22.70;;;20.30;;
7517;SDS011;3800;48.922;9.444;2022-09-01T05:31:06;23.93;;;21.37;;
7517;SDS011;3800;48.922;9.444;2022-09-01T05:33:35;22.50;;;20.13;;
7517;SDS011;3800;48.922;9.444;2022-09-01T05:36:03;22.43;;;20.03;;
7517;SDS011;3800;48.922;9.444;2022-09-01T05:38:32;21.03;;;18.80;;
7517;SDS011;3800;48.922;9.444;2022-09-01T05:41:01;20.93;;;18.73;;
7517;SDS011;3800;48.922;9.444;2022-09-01T05:43:29;22.30;;;19.80;;
7517;SDS011;3800;48.922;9.444;2022-09-01T05:45:57;21.87;;;19.67;;
7517;SDS011;3800;48.922;9.444;2022-09-01T05:48:26;22.97;;;20.50;;
7517;SDS011;3800;48.922;9.444;2022-09-01T05:50:54;22.73;;;20.40;;
7517;SDS011;3800;48.922;9.444;2022-09-01T05:53:22;21.57;;;19.37;;
7517;SDS011;3800;48.922;9.444;2022-09-01T05:55:51;23.83;;;21.17;;
7517;SDS011;3800;48.922;9.444;2022-09-01T05:58:20;23.17;;;20.67;;
7517;SDS011;3800;48.922;9.444;2022-09-01T06:00:48;24.43;;;21.83;;
7517;SDS011;3800;48.922;9.444;2022-09-01T06:03:16;23.97;;;21.57;;
7517;SDS011;3800;48.922;9.444;2022-09-01T06:05:45;24.13;;;21.53;;
7517;SDS011;3800;48.922;9.444;2022-09-01T06:08:13;24.77;;;21.93;;
7517;SDS011;3800;48.922;9.444;2022-09-01T06:10:42;25.40;;;22.80;;
7517;SDS011;3800;48.922;9.444;2022-09-01T06:13:11;25.03;;;22.27;;
7517;SDS011;3800;48.922;9.444;2022-09-01T06:15:39;26.47;;;23.23;;
7517;SDS011;3800;48.922;9.444;2022-09-01T06:18:08;26.23;;;23.53;;
7517;SDS011;3800;48.922;9.444;2022-09-01T06:20:38;26.03;;;22.47;;
7517;SDS011;3800;48.922;9.444;2022-09-01T06:23:06;24.00;;;21.40;;
7517;SDS011;3800;48.922;9.444;2022-09-01T06:25:35;23.57;;;21.07;;
7517;SDS011;3800;48.922;9.444;2022-09-01T06:28:04;24.50;;;21.47;;
7517;SDS011;3800;48.922;9.444;2022-09-01T06:30:32;25.13;;;22.17;;
7517;SDS011;3800;48.922;9.444;2022-09-01T06:33:01;21.87;;;19.53;;
7517;SDS011;3800;48.922;9.444;2022-09-01T06:35:30;23.03;;;20.53;;
7517;SDS011;3800;48.922;9.444;2022-09-01T06:37:59;21.83;;;19.63;;
7517;SDS011;3800;48.922;9.444;2022-09-01T06:40:28;21.97;;;19.13;;
7517;SDS011;3800;48.922;9.444;2022-09-01T06:42:56;21.80;;;19.57;;
7517;SDS011;3800;48.922;9.444;2022-09-01T06:45:25;23.43;;;20.43;;
7517;SDS011;3800;48.922;9.444;2022-09-01T06:47:53;21.70;;;19.50;;
7517;SDS011;3800;48.922;9.444;2022-09-01T06:50:21;22.00;;;19.70;;
7517;SDS011;3800;48.922;9.444;2022-09-01T06:52:51;20.87;;;18.17;;
7517;SDS011;3800;48.922;9.444;2022-09-01T06:55:19;20.93;;;18.73;;
7517;SDS011;3800;48.922;9.444;2022-09-01T06:57:47;20.83;;;18.63;;
7517;SDS011;3800;48.922;9.444;2022-09-01T07:00:16;21.27;;;18.60;;
7517;SDS011;3800;48.922;9.444;2022-09-01T07:02:44;20.00;;;17.90;;
7517;SDS011;3800;48.922;9.444;2022-09-01T07:05:13;19.67;;;17.67;;
7517;SDS011;3800;48.922;9.444;2022-09-01T07:07:41;19.07;;;16.73;;
7517;SDS011;3800;48.922;9.444;2022-09-01T07:10:09;18.47;;;16.67;;
7517;SDS011;3800;48.922;9.444;2022-09-01T07:12:38;18.70;;;16.53;;
7517;SDS011;3800;48.922;9.444;2022-09-01T07:15:06;17.30;;;15.50;;
7517;SDS011;3800;48.922;9.444;2022-09-01T07:17:34;18.10;;;16.07;;
7517;SDS011;3800;48.922;9.444;2022-09-01T07:20:04;17.40;;;15.70;;
7517;SDS011;3800;48.922;9.444;2022-09-01T07:22:32;18.50;;;16.20;;
7517;SDS011;3800;48.922;9.444;2022-09-01T07:25:00;15.90;;;14.20;;
7517;SDS011;3800;48.922;9.444;2022-09-01T07:27:31;15.87;;;14.37;;
7517;SDS011;3800;48.922;9.444;2022-09-01T07:29:59;15.97;;;14.47;;
7517;SDS011;3800;48.922;9.444;2022-09-01T07:32:27;17.87;;;14.10;;
7517;SDS011;3800;48.922;9.444;2022-09-01T07:34:55;14.90;;;13.40;;
7517;SDS011;3800;48.922;9.444;2022-09-01T07:37:24;14.33;;;12.80;;
7517;SDS011;3800;48.922;9.444;2022-09-01T07:39:53;13.37;;;11.97;;
7517;SDS011;3800;48.922;9.444;2022-09-01T07:42:22;13.87;;;11.13;;
7517;SDS011;3800;48.922;9.444;2022-09-01T07:44:50;12.30;;;11.10;;
7517;SDS011;3800;48.922;9.444;2022-09-01T07:47:18;11.57;;;10.37;;
7517;SDS011;3800;48.922;9.444;2022-09-01T07:49:47;10.70;;;9.57;;
7517;SDS011;3800;48.922;9.444;2022-09-01T07:52:16;9.80;;;8.80;;
7517;SDS011;3800;48.922;9.444;2022-09-01T07:54:44;9.23;;;8.43;;
7517;SDS011;3800;48.922;9.444;2022-09-01T07:57:13;9.00;;;8.20;;
7517;SDS011;3800;48.922;9.444;2022-09-01T07:59:41;9.07;;;7.93;;
7517;SDS011;3800;48.922;9.444;2022-09-01T08:02:09;9.80;;;8.47;;
7517;SDS011;3800;48.922;9.444;2022-09-01T08:04:38;8.67;;;7.83;;
7517;SDS011;3800;48.922;9.444;2022-09-01T08:07:08;8.07;;;7.33;;
7517;SDS011;3800;48.922;9.444;2022-09-01T08:09:36;8.40;;;6.97;;
7517;SDS011;3800;48.922;9.444;2022-09-01T08:12:05;7.80;;;7.13;;
7517;SDS011;3800;48.922;9.444;2022-09-01T08:14:32;7.97;;;7.13;;
7517;SDS011;3800;48.922;9.444;2022-09-01T08:17:01;6.40;;;5.90;;
7517;SDS011;3800;48.922;9.444;2022-09-01T08:19:30;7.30;;;6.70;;
7517;SDS011;3800;48.922;9.444;2022-09-01T08:22:00;6.13;;;5.53;;
7517;SDS011;3800;48.922;9.444;2022-09-01T08:24:27;5.60;;;5.10;;
7517;SDS011;3800;48.922;9.444;2022-09-01T08:26:55;5.50;;;5.10;;
7517;SDS011;3800;48.922;9.444;2022-09-01T08:29:24;5.17;;;4.77;;
7517;SDS011;3800;48.922;9.444;2022-09-01T08:31:52;5.57;;;5.07;;
7517;SDS011;3800;48.922;9.444;2022-09-01T08:34:20;5.17;;;4.77;;
7517;SDS011;3800;48.922;9.444;2022-09-01T08:36:48;4.97;;;4.57;;
7517;SDS011;3800;48.922;9.444;2022-09-01T08:39:17;4.80;;;4.30;;
7517;SDS011;3800;48.922;9.444;2022-09-01T08:44:40;5.00;;;4.50;;
7517;SDS011;3800;48.922;9.444;2022-09-01T08:47:10;5.23;;;4.70;;
7517;SDS011;3800;48.922;9.444;2022-09-01T08:49:37;5.23;;;4.47;;
7517;SDS011;3800;48.922;9.444;2022-09-01T08:52:14;4.60;;;4.20;;
7517;SDS011;3800;48.922;9.444;2022-09-01T08:54:47;4.87;;;4.47;;
7517;SDS011;3800;48.922;9.444;2022-09-01T08:57:18;5.07;;;4.57;;
7517;SDS011;3800;48.922;9.444;2022-09-01T08:59:46;4.53;;;4.13;;
7517;SDS011;3800;48.922;9.444;2022-09-01T09:08:17;4.07;;;3.77;;
7517;SDS011;3800;48.922;9.444;2022-09-01T09:11:10;4.37;;;3.97;;
7517;SDS011;3800;48.922;9.444;2022-09-01T09:15:05;3.97;;;3.67;;
7517;SDS011;3800;48.922;9.444;2022-09-01T09:16:59;4.30;;;3.90;;
7517;SDS011;3800;48.922;9.444;2022-09-01T09:19:27;4.27;;;3.87;;
7517;SDS011;3800;48.922;9.444;2022-09-01T09:21:58;4.70;;;4.27;;
7517;SDS011;3800;48.922;9.444;2022-09-01T09:24:29;4.23;;;3.83;;
7517;SDS011;3800;48.922;9.444;2022-09-01T09:27:03;4.50;;;4.10;;
7517;SDS011;3800;48.922;9.444;2022-09-01T09:29:32;5.23;;;4.17;;
7517;SDS011;3800;48.922;9.444;2022-09-01T09:32:05;5.33;;;4.37;;
7517;SDS011;3800;48.922;9.444;2022-09-01T09:34:34;4.10;;;3.80;;
7517;SDS011;3800;48.922;9.444;2022-09-01T09:40:02;4.30;;;3.90;;
7517;SDS011;3800;48.922;9.444;2022-09-01T09:42:38;3.87;;;3.57;;
7517;SDS011;3800;48.922;9.444;2022-09-01T09:47:43;4.10;;;3.80;;
7517;SDS011;3800;48.922;9.444;2022-09-01T09:50:11;3.47;;;3.17;;
7517;SDS011;3800;48.922;9.444;2022-09-01T09:52:45;4.00;;;3.70;;
7517;SDS011;3800;48.922;9.444;2022-09-01T09:55:31;4.73;;;3.60;;
7517;SDS011;3800;48.922;9.444;2022-09-01T09:58:00;4.30;;;3.80;;
7517;SDS011;3800;48.922;9.444;2022-09-01T10:00:29;5.47;;;3.80;;
7517;SDS011;3800;48.922;9.444;2022-09-01T10:03:00;6.53;;;3.73;;
7517;SDS011;3800;48.922;9.444;2022-09-01T10:08:11;4.30;;;3.90;;
7517;SDS011;3800;48.922;9.444;2022-09-01T10:10:40;4.27;;;3.97;;
7517;SDS011;3800;48.922;9.444;2022-09-01T10:13:10;4.50;;;4.10;;
7517;SDS011;3800;48.922;9.444;2022-09-01T10:15:38;4.50;;;4.10;;
7517;SDS011;3800;48.922;9.444;2022-09-01T10:18:08;4.63;;;4.23;;
7517;SDS011;3800;48.922;9.444;2022-09-01T10:20:36;3.93;;;3.53;;
7517;SDS011;3800;48.922;9.444;2022-09-01T10:23:03;5.70;;;4.30;;
7517;SDS011;3800;48.922;9.444;2022-09-01T10:25:33;4.80;;;4.30;;
7517;SDS011;3800;48.922;9.444;2022-09-01T10:28:03;4.60;;;4.20;;
7517;SDS011;3800;48.922;9.444;2022-09-01T10:30:31;4.67;;;4.27;;
7517;SDS011;3800;48.922;9.444;2022-09-01T10:32:59;4.40;;;4.10;;
7517;SDS011;3800;48.922;9.444;2022-09-01T10:35:30;4.77;;;4.37;;
7517;SDS011;3800;48.922;9.444;2022-09-01T10:37:57;4.50;;;4.10;;
7517;SDS011;3800;48.922;9.444;2022-09-01T10:40:41;4.43;;;4.10;;
7517;SDS011;3800;48.922;9.444;2022-09-01T10:49:12;4.47;;;3.90;;
7517;SDS011;3800;48.922;9.444;2022-09-01T10:51:44;4.43;;;4.03;;
7517;SDS011;3800;48.922;9.444;2022-09-01T10:57:24;4.30;;;3.90;;
7517;SDS011;3800;48.922;9.444;2022-09-01T11:04:18;4.50;;;4.10;;
7517;SDS011;3800;48.922;9.444;2022-09-01T11:09:00;4.30;;;4.00;;
7517;SDS011;3800;48.922;9.444;2022-09-01T11:11:29;4.43;;;4.03;;
7517;SDS011;3800;48.922;9.444;2022-09-01T11:14:02;4.67;;;4.23;;
7517;SDS011;3800;48.922;9.444;2022-09-01T11:16:36;4.50;;;4.10;;
7517;SDS011;3800;48.922;9.444;2022-09-01T11:22:20;3.87;;;3.50;;
7517;SDS011;3800;48.922;9.444;2022-09-01T11:25:08;3.93;;;3.63;;
7517;SDS011;3800;48.922;9.444;2022-09-01T11:27:56;4.00;;;3.60;;
7517;SDS011;3800;48.922;9.444;2022-09-01T11:30:33;4.57;;;3.80;;
7517;SDS011;3800;48.922;9.444;2022-09-01T11:33:24;4.63;;;4.27;;
7517;SDS011;3800;48.922;9.444;2022-09-01T11:36:04;4.50;;;4.10;;
7517;SDS011;3800;48.922;9.444;2022-09-01T11:38:42;4.27;;;3.87;;
7517;SDS011;3800;48.922;9.444;2022-09-01T11:41:00;4.50;;;4.10;;
7517;SDS011;3800;48.922;9.444;2022-09-01T11:43:28;4.20;;;3.70;;
7517;SDS011;3800;48.922;9.444;2022-09-01T11:46:15;5.97;;;3.80;;
7517;SDS011;3800;48.922;9.444;2022-09-01T11:48:45;4.00;;;3.50;;
7517;SDS011;3800;48.922;9.444;2022-09-01T11:51:13;3.90;;;3.60;;
7517;SDS011;3800;48.922;9.444;2022-09-01T11:53:42;4.33;;;3.70;;
7517;SDS011;3800;48.922;9.444;2022-09-01T11:56:13;4.23;;;3.77;;
7517;SDS011;3800;48.922;9.444;2022-09-01T11:58:41;4.00;;;3.63;;
7517;SDS011;3800;48.922;9.444;2022-09-01T12:06:51;4.10;;;3.80;;
7517;SDS011;3800;48.922;9.444;2022-09-01T12:11:58;3.80;;;3.50;;
7517;SDS011;3800;48.922;9.444;2022-09-01T12:14:26;4.73;;;4.13;;
7517;SDS011;3800;48.922;9.444;2022-09-01T12:16:57;4.03;;;3.73;;
7517;SDS011;3800;48.922;9.444;2022-09-01T12:19:26;4.70;;;4.20;;
7517;SDS011;3800;48.922;9.444;2022-09-01T12:21:57;5.67;;;4.33;;
7517;SDS011;3800;48.922;9.444;2022-09-01T12:24:34;4.50;;;4.10;;
7517;SDS011;3800;48.922;9.444;2022-09-01T12:27:02;3.97;;;3.67;;
7517;SDS011;3800;48.922;9.444;2022-09-01T12:29:31;4.10;;;3.70;;
7517;SDS011;3800;48.922;9.444;2022-09-01T12:31:59;4.13;;;3.73;;
7517;SDS011;3800;48.922;9.444;2022-09-01T12:34:38;4.53;;;4.10;;
7517;SDS011;3800;48.922;9.444;2022-09-01T12:39:47;4.47;;;4.07;;
7517;SDS011;3800;48.922;9.444;2022-09-01T12:42:23;4.60;;;4.20;;
7517;SDS011;3800;48.922;9.444;2022-09-01T12:44:59;4.00;;;3.70;;
7517;SDS011;3800;48.922;9.444;2022-09-01T12:52:59;3.73;;;3.33;;
7517;SDS011;3800;48.922;9.444;2022-09-01T12:55:29;4.10;;;3.30;;
7517;SDS011;3800;48.922;9.444;2022-09-01T12:58:00;3.40;;;3.07;;
7517;SDS011;3800;48.922;9.444;2022-09-01T13:00:29;3.27;;;2.97;;
7517;SDS011;3800;48.922;9.444;2022-09-01T13:05:45;3.40;;;3.10;;
7517;SDS011;3800;48.922;9.444;2022-09-01T13:08:13;4.03;;;2.83;;
7517;SDS011;3800;48.922;9.444;2022-09-01T13:10:42;2.97;;;2.77;;
7517;SDS011;3800;48.922;9.444;2022-09-01T13:13:11;3.83;;;3.20;;
7517;SDS011;3800;48.922;9.444;2022-09-01T13:15:40;3.30;;;3.10;;
7517;SDS011;3800;48.922;9.444;2022-09-01T13:18:07;3.40;;;3.10;;
7517;SDS011;3800;48.922;9.444;2022-09-01T13:20:35;3.37;;;2.83;;
7517;SDS011;3800;48.922;9.444;2022-09-01T13:23:04;3.10;;;2.80;;
7517;SDS011;3800;48.922;9.444;2022-09-01T13:25:32;3.80;;;2.87;;
7517;SDS011;3800;48.922;9.444;2022-09-01T13:28:00;3.00;;;2.80;;
7517;SDS011;3800;48.922;9.444;2022-09-01T13:30:29;3.20;;;2.90;;
7517;SDS011;3800;48.922;9.444;2022-09-01T13:32:57;3.47;;;2.83;;
7517;SDS011;3800;48.922;9.444;2022-09-01T13:35:25;4.00;;;3.40;;
7517;SDS011;3800;48.922;9.444;2022-09-01T13:37:54;4.37;;;2.80;;
7517;SDS011;3800;48.922;9.444;2022-09-01T13:40:22;3.90;;;3.30;;
7517;SDS011;3800;48.922;9.444;2022-09-01T13:42:51;3.20;;;2.90;;
7517;SDS011;3800;48.922;9.444;2022-09-01T13:45:21;3.10;;;2.80;;
7517;SDS011;3800;48.922;9.444;2022-09-01T13:47:48;9.43;;;8.53;;
7517;SDS011;3800;48.922;9.444;2022-09-01T13:50:18;11.90;;;10.70;;
7517;SDS011;3800;48.922;9.444;2022-09-01T13:52:46;9.50;;;8.57;;
7517;SDS011;3800;48.922;9.444;2022-09-01T13:55:15;50.57;;;41.63;;
7517;SDS011;3800;48.922;9.444;2022-09-01T13:57:42;17.40;;;14.73;;
7517;SDS011;3800;48.922;9.444;2022-09-01T14:00:11;6.77;;;6.17;;
7517;SDS011;3800;48.922;9.444;2022-09-01T14:02:41;8.33;;;7.50;;
7517;SDS011;3800;48.922;9.444;2022-09-01T14:05:10;6.13;;;5.50;;
7517;SDS011;3800;48.922;9.444;2022-09-01T14:07:38;5.60;;;5.10;;
7517;SDS011;3800;48.922;9.444;2022-09-01T14:10:06;4.23;;;3.83;;
7517;SDS011;3800;48.922;9.444;2022-09-01T14:12:35;4.20;;;3.80;;
7517;SDS011;3800;48.922;9.444;2022-09-01T14:15:03;3.30;;;3.00;;
7517;SDS011;3800;48.922;9.444;2022-09-01T14:17:33;4.60;;;4.20;;
7517;SDS011;3800;48.922;9.444;2022-09-01T14:20:01;3.40;;;3.10;;
7517;SDS011;3800;48.922;9.444;2022-09-01T14:22:31;3.10;;;2.80;;
7517;SDS011;3800;48.922;9.444;2022-09-01T14:24:58;5.97;;;5.50;;
7517;SDS011;3800;48.922;9.444;2022-09-01T14:27:26;4.03;;;3.00;;
7517;SDS011;3800;48.922;9.444;2022-09-01T14:29:55;4.73;;;3.10;;
7517;SDS011;3800;48.922;9.444;2022-09-01T14:32:23;3.90;;;3.23;;
7517;SDS011;3800;48.922;9.444;2022-09-01T14:34:52;5.80;;;3.40;;
7517;SDS011;3800;48.922;9.444;2022-09-01T14:37:20;3.20;;;2.90;;
7517;SDS011;3800;48.922;9.444;2022-09-01T14:39:49;3.47;;;2.80;;
7517;SDS011;3800;48.922;9.444;2022-09-01T14:42:19;4.40;;;3.10;;
7517;SDS011;3800;48.922;9.444;2022-09-01T14:44:47;3.30;;;3.00;;
7517;SDS011;3800;48.922;9.444;2022-09-01T14:47:16;3.40;;;3.17;;
7517;SDS011;3800;48.922;9.444;2022-09-01T14:49:44;3.30;;;3.00;;
7517;SDS011;3800;48.922;9.444;2022-09-01T14:52:13;3.27;;;3.07;;
7517;SDS011;3800;48.922;9.444;2022-09-01T14:54:41;4.50;;;3.40;;
7517;SDS011;3800;48.922;9.444;2022-09-01T14:57:10;3.73;;;3.27;;
7517;SDS011;3800;48.922;9.444;2022-09-01T14:59:38;3.70;;;3.40;;
7517;SDS011;3800;48.922;9.444;2022-09-01T15:02:07;3.50;;;3.20;;
7517;SDS011;3800;48.922;9.444;2022-09-01T15:04:36;3.40;;;3.13;;
7517;SDS011;3800;48.922;9.444;2022-09-01T15:07:04;4.40;;;4.00;;
7517;SDS011;3800;48.922;9.444;2022-09-01T15:09:32;3.80;;;3.50;;
7517;SDS011;3800;48.922;9.444;2022-09-01T15:12:01;4.20;;;2.80;;
7517;SDS011;3800;48.922;9.444;2022-09-01T15:14:30;3.60;;;3.27;;
7517;SDS011;3800;48.922;9.444;2022-09-01T15:16:57;3.50;;;3.20;;
7517;SDS011;3800;48.922;9.444;2022-09-01T15:19:25;6.43;;;5.20;;
7517;SDS011;3800;48.922;9.444;2022-09-01T15:21:54;4.27;;;3.97;;
7517;SDS011;3800;48.922;9.444;2022-09-01T15:24:22;12.03;;;10.70;;
7517;SDS011;3800;48.922;9.444;2022-09-01T15:26:51;3.73;;;3.43;;
7517;SDS011;3800;48.922;9.444;2022-09-01T15:29:19;13.20;;;9.57;;
7517;SDS011;3800;48.922;9.444;2022-09-01T15:31:48;6.47;;;5.77;;
7517;SDS011;3800;48.922;9.444;2022-09-01T15:34:16;3.77;;;3.47;;
7517;SDS011;3800;48.922;9.444;2022-09-01T15:36:45;25.67;;;21.57;;
7517;SDS011;3800;48.922;9.444;2022-09-01T15:39:13;8.10;;;7.30;;
7517;SDS011;3800;48.922;9.444;2022-09-01T15:41:42;17.40;;;15.20;;
7517;SDS011;3800;48.922;9.444;2022-09-01T15:44:10;13.07;;;11.67;;
7517;SDS011;3800;48.922;9.444;2022-09-01T15:46:40;4.23;;;3.83;;
7517;SDS011;3800;48.922;9.444;2022-09-01T15:49:08;4.20;;;3.80;;
7517;SDS011;3800;48.922;9.444;2022-09-01T15:51:37;4.43;;;3.80;;
7517;SDS011;3800;48.922;9.444;2022-09-01T15:54:12;4.10;;;3.70;;
7517;SDS011;3800;48.922;9.444;2022-09-01T15:56:43;4.00;;;3.70;;
7517;SDS011;3800;48.922;9.444;2022-09-01T15:59:12;4.40;;;3.83;;
7517;SDS011;3800;48.922;9.444;2022-09-01T16:01:41;3.87;;;3.57;;
7517;SDS011;3800;48.922;9.444;2022-09-01T16:04:11;4.53;;;3.40;;
7517;SDS011;3800;48.922;9.444;2022-09-01T16:06:38;5.53;;;3.37;;
7517;SDS011;3800;48.922;9.444;2022-09-01T16:09:06;3.97;;;3.57;;
7517;SDS011;3800;48.922;9.444;2022-09-01T16:11:35;3.83;;;3.40;;
7517;SDS011;3800;48.922;9.444;2022-09-01T16:14:03;4.67;;;3.07;;